sensor_id;sensor_type;location;lat;lon;timestamp;pressure;altitude;pressure_sealevel;temperature;humidity
6387;BME280;3226;42.162;24.756;2023-12-20T00:01:21;100127.16;;;1.02;100.00
6387;BME280;3226;42.162;24.756;2023-12-20T00:03:50;100079.25;;;0.71;100.00
6387;BME280;3226;42.162;24.756;2023-12-20T00:06:18;100005.41;;;0.19;100.00
6387;BME280;3226;42.162;24.756;2023-12-20T00:08:46;100029.84;;;0.33;100.00
6387;BME280;3226;42.162;24.756;2023-12-20T00:11:14;100123.34;;;0.89;100.00
6387;BME280;3226;42.162;24.756;2023-12-20T00:13:42;100117.00;;;0.97;100.00
6387;BME280;3226;42.162;24.756;2023-12-20T00:16:13;100110.66;;;1.08;100.00
6387;BME280;3226;42.162;24.756;2023-12-20T00:18:41;100091.84;;;1.04;100.00
6387;BME280;3226;42.162;24.756;2023-12-20T00:21:11;100113.91;;;1.13;100.00
6387;BME280;3226;42.162;24.756;2023-12-20T00:23:38;100106.97;;;1.13;100.00
6387;BME280;3226;42.162;24.756;2023-12-20T00:26:07;100083.47;;;0.97;100.00
6387;BME280;3226;42.162;24.756;2023-12-20T00:28:35;100113.03;;;1.12;100.00
6387;BME280;3226;42.162;24.756;2023-12-20T00:31:03;100078.69;;;0.86;100.00
6387;BME280;3226;42.162;24.756;2023-12-20T00:33:31;100097.22;;;0.98;100.00
6387;BME280;3226;42.162;24.756;2023-12-20T00:35:59;100086.63;;;1.06;100.00
6387;BME280;3226;42.162;24.756;2023-12-20T00:38:29;100048.72;;;0.84;100.00
6387;BME280;3226;42.162;24.756;2023-12-20T00:40:56;100088.91;;;1.13;100.00
6387;BME280;3226;42.162;24.756;2023-12-20T00:43:24;100077.00;;;1.11;100.00
6387;BME280;3226;42.162;24.756;2023-12-20T00:45:53;100074.69;;;1.03;100.00
6387;BME280;3226;42.162;24.756;2023-12-20T00:48:22;100072.16;;;1.01;100.00
6387;BME280;3226;42.162;24.756;2023-12-20T00:50:50;100073.13;;;0.99;100.00
6387;BME280;3226;42.162;24.756;2023-12-20T00:53:18;100070.56;;;0.97;100.00
6387;BME280;3226;42.162;24.756;2023-12-20T00:55:47;100074.00;;;0.98;100.00
6387;BME280;3226;42.162;24.756;2023-12-20T00:58:16;100064.41;;;1.01;100.00
6387;BME280;3226;42.162;24.756;2023-12-20T01:00:44;100061.41;;;1.14;100.00
6387;BME280;3226;42.162;24.756;2023-12-20T01:03:13;100065.00;;;1.10;100.00
6387;BME280;3226;42.162;24.756;2023-12-20T01:05:42;100037.53;;;0.83;100.00
6387;BME280;3226;42.162;24.756;2023-12-20T01:08:10;100059.09;;;1.06;100.00
6387;BME280;3226;42.162;24.756;2023-12-20T01:10:38;100060.50;;;0.91;100.00
6387;BME280;3226;42.162;24.756;2023-12-20T01:13:08;100010.97;;;0.57;100.00
6387;BME280;3226;42.162;24.756;2023-12-20T01:15:36;100043.34;;;0.90;100.00
6387;BME280;3226;42.162;24.756;2023-12-20T01:18:04;100042.44;;;0.91;100.00
6387;BME280;3226;42.162;24.756;2023-12-20T01:20:32;100035.25;;;0.99;100.00
6387;BME280;3226;42.162;24.756;2023-12-20T01:23:00;100033.91;;;0.89;100.00
6387;BME280;3226;42.162;24.756;2023-12-20T01:25:28;100026.03;;;0.68;100.00
6387;BME280;3226;42.162;24.756;2023-12-20T01:27:56;100023.28;;;0.49;100.00
6387;BME280;3226;42.162;24.756;2023-12-20T01:30:26;100016.34;;;0.26;100.00
6387;BME280;3226;42.162;24.756;2023-12-20T01:32:54;99980.69;;;-0.12;100.00
6387;BME280;3226;42.162;24.756;2023-12-20T01:35:22;100000.22;;;-0.06;100.00
6387;BME280;3226;42.162;24.756;2023-12-20T01:37:50;99928.97;;;-0.58;100.00
6387;BME280;3226;42.162;24.756;2023-12-20T01:40:19;99989.88;;;-0.32;100.00
6387;BME280;3226;42.162;24.756;2023-12-20T01:42:47;99984.06;;;-0.38;100.00
6387;BME280;3226;42.162;24.756;2023-12-20T01:45:15;100009.91;;;-0.13;100.00
6387;BME280;3226;42.162;24.756;2023-12-20T01:47:44;100013.78;;;-0.01;100.00
6387;BME280;3226;42.162;24.756;2023-12-20T01:50:13;99992.78;;;-0.14;100.00
6387;BME280;3226;42.162;24.756;2023-12-20T01:52:42;100007.59;;;0.05;100.00
6387;BME280;3226;42.162;24.756;2023-12-20T01:55:10;99996.03;;;-0.09;100.00
6387;BME280;3226;42.162;24.756;2023-12-20T01:57:41;99995.16;;;-0.09;100.00
6387;BME280;3226;42.162;24.756;2023-12-20T02:00:12;99948.59;;;-0.28;100.00
6387;BME280;3226;42.162;24.756;2023-12-20T02:02:41;99993.94;;;0.03;100.00
6387;BME280;3226;42.162;24.756;2023-12-20T02:05:10;99947.91;;;-0.07;100.00
6387;BME280;3226;42.162;24.756;2023-12-20T02:07:39;99980.47;;;0.20;100.00
6387;BME280;3226;42.162;24.756;2023-12-20T02:10:08;99946.75;;;0.02;100.00
6387;BME280;3226;42.162;24.756;2023-12-20T02:12:36;99970.44;;;0.12;100.00
6387;BME280;3226;42.162;24.756;2023-12-20T02:15:04;99944.63;;;-0.12;100.00
6387;BME280;3226;42.162;24.756;2023-12-20T02:17:33;99970.91;;;-0.02;100.00
6387;BME280;3226;42.162;24.756;2023-12-20T02:20:02;99966.13;;;0.12;100.00
6387;BME280;3226;42.162;24.756;2023-12-20T02:22:31;99917.31;;;-0.16;100.00
6387;BME280;3226;42.162;24.756;2023-12-20T02:24:59;99966.72;;;0.21;100.00
6387;BME280;3226;42.162;24.756;2023-12-20T02:27:27;99963.88;;;0.28;100.00
6387;BME280;3226;42.162;24.756;2023-12-20T02:29:56;99919.47;;;-0.04;100.00
6387;BME280;3226;42.162;24.756;2023-12-20T02:32:25;99892.03;;;-0.05;100.00
6387;BME280;3226;42.162;24.756;2023-12-20T02:34:54;99954.41;;;0.29;100.00
6387;BME280;3226;42.162;24.756;2023-12-20T02:37:23;99922.38;;;0.11;100.00
6387;BME280;3226;42.162;24.756;2023-12-20T02:39:52;99911.53;;;0.03;100.00
6387;BME280;3226;42.162;24.756;2023-12-20T02:42:20;99945.16;;;0.23;100.00
6387;BME280;3226;42.162;24.756;2023-12-20T02:44:48;99946.34;;;0.13;100.00
6387;BME280;3226;42.162;24.756;2023-12-20T02:47:16;99946.44;;;0.11;100.00
6387;BME280;3226;42.162;24.756;2023-12-20T02:49:44;99938.91;;;0.05;100.00
6387;BME280;3226;42.162;24.756;2023-12-20T02:52:12;99936.66;;;0.21;100.00
6387;BME280;3226;42.162;24.756;2023-12-20T02:54:41;99938.09;;;0.28;100.00
6387;BME280;3226;42.162;24.756;2023-12-20T02:57:10;99935.53;;;0.28;100.00
6387;BME280;3226;42.162;24.756;2023-12-20T02:59:38;99920.13;;;0.02;100.00
6387;BME280;3226;42.162;24.756;2023-12-20T03:02:06;99930.38;;;0.28;100.00
6387;BME280;3226;42.162;24.756;2023-12-20T03:04:34;99933.31;;;0.18;100.00
6387;BME280;3226;42.162;24.756;2023-12-20T03:07:02;99926.66;;;0.12;100.00
6387;BME280;3226;42.162;24.756;2023-12-20T03:09:30;99849.47;;;-0.40;100.00
6387;BME280;3226;42.162;24.756;2023-12-20T03:12:20;99925.19;;;0.05;100.00
6387;BME280;3226;42.162;24.756;2023-12-20T03:14:48;99922.50;;;0.08;100.00
6387;BME280;3226;42.162;24.756;2023-12-20T03:17:16;99922.78;;;0.00;100.00
6387;BME280;3226;42.162;24.756;2023-12-20T03:19:44;99924.19;;;0.09;100.00
6387;BME280;3226;42.162;24.756;2023-12-20T03:22:12;99879.53;;;-0.16;100.00
6387;BME280;3226;42.162;24.756;2023-12-20T03:24:40;99916.56;;;0.06;100.00
6387;BME280;3226;42.162;24.756;2023-12-20T03:27:08;99915.00;;;0.02;100.00
6387;BME280;3226;42.162;24.756;2023-12-20T03:29:37;99913.47;;;-0.04;100.00
6387;BME280;3226;42.162;24.756;2023-12-20T03:32:06;99860.16;;;-0.26;100.00
6387;BME280;3226;42.162;24.756;2023-12-20T03:34:35;99911.63;;;-0.01;100.00
6387;BME280;3226;42.162;24.756;2023-12-20T03:37:03;99911.63;;;-0.01;100.00
6387;BME280;3226;42.162;24.756;2023-12-20T03:39:31;99845.53;;;-0.51;100.00
6387;BME280;3226;42.162;24.756;2023-12-20T03:41:59;99906.81;;;-0.10;100.00
6387;BME280;3226;42.162;24.756;2023-12-20T03:44:27;99818.38;;;-0.60;100.00
6387;BME280;3226;42.162;24.756;2023-12-20T03:46:56;99878.97;;;-0.24;100.00
6387;BME280;3226;42.162;24.756;2023-12-20T03:49:24;99894.16;;;-0.16;100.00
6387;BME280;3226;42.162;24.756;2023-12-20T03:51:53;99896.50;;;-0.10;100.00
6387;BME280;3226;42.162;24.756;2023-12-20T03:54:21;99898.47;;;-0.18;100.00
6387;BME280;3226;42.162;24.756;2023-12-20T03:56:49;99898.19;;;-0.09;100.00
6387;BME280;3226;42.162;24.756;2023-12-20T03:59:18;99906.13;;;-0.15;100.00
6387;BME280;3226;42.162;24.756;2023-12-20T04:01:46;99907.91;;;-0.17;100.00
6387;BME280;3226;42.162;24.756;2023-12-20T04:04:16;99904.59;;;-0.21;100.00
6387;BME280;3226;42.162;24.756;2023-12-20T04:06:44;99907.53;;;-0.32;100.00
6387;BME280;3226;42.162;24.756;2023-12-20T04:09:12;99908.31;;;-0.30;100.00
6387;BME280;3226;42.162;24.756;2023-12-20T04:11:40;99900.38;;;-0.23;100.00
6387;BME280;3226;42.162;24.756;2023-12-20T04:14:08;99890.34;;;-0.31;100.00
6387;BME280;3226;42.162;24.756;2023-12-20T04:16:36;99887.78;;;-0.31;100.00
6387;BME280;3226;42.162;24.756;2023-12-20T04:19:05;99889.56;;;-0.33;100.00
6387;BME280;3226;42.162;24.756;2023-12-20T04:21:35;99875.47;;;-0.48;100.00
6387;BME280;3226;42.162;24.756;2023-12-20T04:24:03;99866.13;;;-0.51;100.00
6387;BME280;3226;42.162;24.756;2023-12-20T04:26:31;99896.81;;;-0.19;100.00
6387;BME280;3226;42.162;24.756;2023-12-20T04:28:59;99876.19;;;-0.45;100.00
6387;BME280;3226;42.162;24.756;2023-12-20T04:31:27;99877.06;;;-0.44;100.00
6387;BME280;3226;42.162;24.756;2023-12-20T04:33:55;99868.34;;;-0.67;100.00
6387;BME280;3226;42.162;24.756;2023-12-20T04:36:23;99892.53;;;-0.46;100.00
6387;BME280;3226;42.162;24.756;2023-12-20T04:38:54;99886.25;;;-0.37;100.00
6387;BME280;3226;42.162;24.756;2023-12-20T04:41:22;99816.44;;;-0.78;100.00
6387;BME280;3226;42.162;24.756;2023-12-20T04:43:50;99882.22;;;-0.44;100.00
6387;BME280;3226;42.162;24.756;2023-12-20T04:46:18;99859.53;;;-0.60;100.00
6387;BME280;3226;42.162;24.756;2023-12-20T04:48:46;99827.97;;;-0.65;100.00
6387;BME280;3226;42.162;24.756;2023-12-20T04:51:15;99867.38;;;-0.37;100.00
6387;BME280;3226;42.162;24.756;2023-12-20T04:53:43;99867.75;;;-0.48;100.00
6387;BME280;3226;42.162;24.756;2023-12-20T04:56:12;99862.09;;;-0.60;100.00
6387;BME280;3226;42.162;24.756;2023-12-20T04:58:40;99874.47;;;-0.44;100.00
6387;BME280;3226;42.162;24.756;2023-12-20T05:01:09;99823.81;;;-0.67;100.00
6387;BME280;3226;42.162;24.756;2023-12-20T05:03:37;99869.22;;;-0.41;100.00
6387;BME280;3226;42.162;24.756;2023-12-20T05:06:05;99866.00;;;-0.48;100.00
6387;BME280;3226;42.162;24.756;2023-12-20T05:08:33;99859.94;;;-0.45;100.00
6387;BME280;3226;42.162;24.756;2023-12-20T05:11:01;99859.28;;;-0.52;100.00
6387;BME280;3226;42.162;24.756;2023-12-20T05:13:31;99855.19;;;-0.57;100.00
6387;BME280;3226;42.162;24.756;2023-12-20T05:16:10;99813.91;;;-0.80;100.00
6387;BME280;3226;42.162;24.756;2023-12-20T05:18:40;99831.34;;;-0.63;100.00
6387;BME280;3226;42.162;24.756;2023-12-20T05:21:09;99735.03;;;-1.32;100.00
6387;BME280;3226;42.162;24.756;2023-12-20T05:23:37;99845.34;;;-0.71;100.00
6387;BME280;3226;42.162;24.756;2023-12-20T05:26:05;99780.31;;;-1.00;100.00
6387;BME280;3226;42.162;24.756;2023-12-20T05:28:34;99819.22;;;-0.59;100.00
6387;BME280;3226;42.162;24.756;2023-12-20T05:31:03;99840.28;;;-0.48;100.00
6387;BME280;3226;42.162;24.756;2023-12-20T05:33:31;99835.38;;;-0.55;100.00
6387;BME280;3226;42.162;24.756;2023-12-20T05:35:59;99818.84;;;-0.74;100.00
6387;BME280;3226;42.162;24.756;2023-12-20T05:38:27;99839.28;;;-0.69;100.00
6387;BME280;3226;42.162;24.756;2023-12-20T05:40:56;99788.91;;;-1.02;100.00
6387;BME280;3226;42.162;24.756;2023-12-20T05:43:24;99824.59;;;-0.65;100.00
6387;BME280;3226;42.162;24.756;2023-12-20T05:46:02;99587.06;;;-2.18;100.00
6387;BME280;3226;42.162;24.756;2023-12-20T05:48:37;99757.44;;;-1.10;100.00
6387;BME280;3226;42.162;24.756;2023-12-20T05:51:06;99489.47;;;-2.70;100.00
6387;BME280;3226;42.162;24.756;2023-12-20T05:53:47;99458.81;;;-2.73;100.00
6387;BME280;3226;42.162;24.756;2023-12-20T05:56:33;99825.28;;;-0.60;100.00
6387;BME280;3226;42.162;24.756;2023-12-20T05:59:02;99751.81;;;-0.94;100.00
6387;BME280;3226;42.162;24.756;2023-12-20T06:01:31;99802.22;;;-0.63;100.00
6387;BME280;3226;42.162;24.756;2023-12-20T06:04:00;99553.81;;;-2.21;100.00
6387;BME280;3226;42.162;24.756;2023-12-20T06:06:28;99505.34;;;-2.57;100.00
6387;BME280;3226;42.162;24.756;2023-12-20T06:08:57;99326.56;;;-3.63;100.00
6387;BME280;3226;42.162;24.756;2023-12-20T06:11:31;99775.28;;;-0.78;100.00
6387;BME280;3226;42.162;24.756;2023-12-20T06:14:15;99514.09;;;-2.65;100.00
6387;BME280;3226;42.162;24.756;2023-12-20T06:16:47;99540.56;;;-2.36;100.00
6387;BME280;3226;42.162;24.756;2023-12-20T06:19:19;99253.25;;;-3.94;100.00
6387;BME280;3226;42.162;24.756;2023-12-20T06:21:50;99403.06;;;-2.95;100.00
6387;BME280;3226;42.162;24.756;2023-12-20T06:24:22;99811.41;;;-0.31;100.00
6387;BME280;3226;42.162;24.756;2023-12-20T06:26:54;99807.44;;;-0.16;100.00
6387;BME280;3226;42.162;24.756;2023-12-20T06:29:23;99566.97;;;-1.78;100.00
6387;BME280;3226;42.162;24.756;2023-12-20T06:31:53;99806.78;;;0.03;100.00
6387;BME280;3226;42.162;24.756;2023-12-20T06:34:26;99801.47;;;0.08;100.00
6387;BME280;3226;42.162;24.756;2023-12-20T06:36:56;99717.28;;;-0.38;100.00
6387;BME280;3226;42.162;24.756;2023-12-20T06:39:24;99685.19;;;-0.51;100.00
6387;BME280;3226;42.162;24.756;2023-12-20T06:41:52;99785.25;;;0.28;100.00
6387;BME280;3226;42.162;24.756;2023-12-20T06:44:22;99804.53;;;0.41;100.00
6387;BME280;3226;42.162;24.756;2023-12-20T06:46:57;99240.06;;;-2.74;100.00
6387;BME280;3226;42.162;24.756;2023-12-20T06:49:31;99280.94;;;-1.96;100.00
6387;BME280;3226;42.162;24.756;2023-12-20T06:52:08;99149.84;;;-2.36;100.00
6387;BME280;3226;42.162;24.756;2023-12-20T06:54:52;99487.06;;;-0.08;100.00
6387;BME280;3226;42.162;24.756;2023-12-20T06:57:23;99786.31;;;1.73;100.00
6387;BME280;3226;42.162;24.756;2023-12-20T07:00:06;99523.53;;;-0.19;100.00
6387;BME280;3226;42.162;24.756;2023-12-20T07:02:42;99439.50;;;-0.41;100.00
6387;BME280;3226;42.162;24.756;2023-12-20T07:05:20;99794.28;;;2.07;100.00
6387;BME280;3226;42.162;24.756;2023-12-20T07:12:13;99742.91;;;2.01;100.00
6387;BME280;3226;42.162;24.756;2023-12-20T07:15:46;99393.19;;;-0.41;100.00
6387;BME280;3226;42.162;24.756;2023-12-20T07:18:16;99665.44;;;1.23;100.00
6387;BME280;3226;42.162;24.756;2023-12-20T07:20:45;99665.34;;;1.05;100.00
6387;BME280;3226;42.162;24.756;2023-12-20T07:23:14;99601.31;;;0.54;100.00
6387;BME280;3226;42.162;24.756;2023-12-20T07:25:42;99764.34;;;2.03;100.00
6387;BME280;3226;42.162;24.756;2023-12-20T07:28:11;99766.22;;;2.38;100.00
6387;BME280;3226;42.162;24.756;2023-12-20T07:30:39;99473.91;;;0.79;100.00
6387;BME280;3226;42.162;24.756;2023-12-20T07:33:08;99506.19;;;0.88;100.00
6387;BME280;3226;42.162;24.756;2023-12-20T07:35:38;99581.88;;;1.27;100.00
6387;BME280;3226;42.162;24.756;2023-12-20T07:38:07;99759.94;;;2.24;100.00
6387;BME280;3226;42.162;24.756;2023-12-20T07:40:36;99341.34;;;-0.52;100.00
6387;BME280;3226;42.162;24.756;2023-12-20T07:43:07;99760.69;;;2.07;100.00
6387;BME280;3226;42.162;24.756;2023-12-20T07:45:36;99734.03;;;1.68;100.00
6387;BME280;3226;42.162;24.756;2023-12-20T07:48:06;99437.94;;;0.17;100.00
6387;BME280;3226;42.162;24.756;2023-12-20T07:50:35;99498.97;;;0.56;100.00
6387;BME280;3226;42.162;24.756;2023-12-20T07:53:05;99698.22;;;1.99;100.00
6387;BME280;3226;42.162;24.756;2023-12-20T07:55:33;99725.28;;;2.28;100.00
6387;BME280;3226;42.162;24.756;2023-12-20T07:58:01;99747.44;;;2.71;100.00
6387;BME280;3226;42.162;24.756;2023-12-20T08:00:31;99665.94;;;2.44;100.00
6387;BME280;3226;42.162;24.756;2023-12-20T08:02:59;99736.47;;;3.18;100.00
6387;BME280;3226;42.162;24.756;2023-12-20T08:05:30;99674.25;;;2.86;100.00
6387;BME280;3226;42.162;24.756;2023-12-20T08:07:58;99678.59;;;2.68;100.00
6387;BME280;3226;42.162;24.756;2023-12-20T08:10:28;99740.13;;;2.97;100.00
6387;BME280;3226;42.162;24.756;2023-12-20T08:12:57;99734.81;;;2.82;100.00
6387;BME280;3226;42.162;24.756;2023-12-20T08:15:25;99737.66;;;2.58;100.00
6387;BME280;3226;42.162;24.756;2023-12-20T08:17:53;99737.03;;;2.90;100.00
6387;BME280;3226;42.162;24.756;2023-12-20T08:20:21;99407.97;;;1.12;100.00
6387;BME280;3226;42.162;24.756;2023-12-20T08:23:03;99730.66;;;3.31;100.00
6387;BME280;3226;42.162;24.756;2023-12-20T08:25:33;99353.72;;;1.13;100.00
6387;BME280;3226;42.162;24.756;2023-12-20T08:28:03;99724.81;;;3.27;100.00
6387;BME280;3226;42.162;24.756;2023-12-20T08:30:31;99683.03;;;3.17;100.00
6387;BME280;3226;42.162;24.756;2023-12-20T08:33:00;99709.19;;;3.46;100.00
6387;BME280;3226;42.162;24.756;2023-12-20T08:35:29;99708.94;;;3.67;100.00
6387;BME280;3226;42.162;24.756;2023-12-20T08:37:58;99709.41;;;3.75;100.00
6387;BME280;3226;42.162;24.756;2023-12-20T08:40:26;99643.88;;;3.41;100.00
6387;BME280;3226;42.162;24.756;2023-12-20T08:42:56;99694.63;;;3.78;100.00
6387;BME280;3226;42.162;24.756;2023-12-20T08:45:24;99647.69;;;3.50;100.00
6387;BME280;3226;42.162;24.756;2023-12-20T08:47:52;99687.84;;;4.07;100.00
6387;BME280;3226;42.162;24.756;2023-12-20T08:50:24;99680.75;;;4.57;100.00
6387;BME280;3226;42.162;24.756;2023-12-20T08:52:52;99630.38;;;4.31;99.46
6387;BME280;3226;42.162;24.756;2023-12-20T08:55:20;99620.56;;;4.36;99.01
6387;BME280;3226;42.162;24.756;2023-12-20T08:57:48;99621.25;;;4.24;99.53
6387;BME280;3226;42.162;24.756;2023-12-20T09:00:19;99514.88;;;3.64;99.25
6387;BME280;3226;42.162;24.756;2023-12-20T09:02:51;99586.38;;;3.99;100.00
6387;BME280;3226;42.162;24.756;2023-12-20T09:05:19;99650.16;;;4.48;100.00
6387;BME280;3226;42.162;24.756;2023-12-20T09:07:47;99560.78;;;4.09;100.00
6387;BME280;3226;42.162;24.756;2023-12-20T09:10:18;99634.56;;;4.78;100.00
6387;BME280;3226;42.162;24.756;2023-12-20T09:12:49;99639.13;;;5.04;100.00
6387;BME280;3226;42.162;24.756;2023-12-20T09:15:19;99624.50;;;5.17;100.00
6387;BME280;3226;42.162;24.756;2023-12-20T09:17:47;99620.88;;;5.34;98.40
6387;BME280;3226;42.162;24.756;2023-12-20T09:20:16;99569.69;;;5.07;98.13
6387;BME280;3226;42.162;24.756;2023-12-20T09:22:45;99610.34;;;5.65;96.26
6387;BME280;3226;42.162;24.756;2023-12-20T09:25:15;99451.69;;;4.99;94.98
6387;BME280;3226;42.162;24.756;2023-12-20T09:27:44;99508.34;;;5.06;95.23
6387;BME280;3226;42.162;24.756;2023-12-20T09:30:14;99595.22;;;5.57;96.60
6387;BME280;3226;42.162;24.756;2023-12-20T09:32:54;99603.63;;;5.75;94.77
6387;BME280;3226;42.162;24.756;2023-12-20T09:35:23;99595.88;;;5.88;95.31
6387;BME280;3226;42.162;24.756;2023-12-20T09:37:53;99468.94;;;5.14;93.35
6387;BME280;3226;42.162;24.756;2023-12-20T09:40:22;99379.59;;;4.62;93.15
6387;BME280;3226;42.162;24.756;2023-12-20T09:42:57;99575.75;;;6.19;92.65
6387;BME280;3226;42.162;24.756;2023-12-20T09:45:25;99570.69;;;6.44;92.44
6387;BME280;3226;42.162;24.756;2023-12-20T09:47:59;99560.78;;;6.36;93.40
6387;BME280;3226;42.162;24.756;2023-12-20T09:50:27;99526.03;;;6.24;91.13
6387;BME280;3226;42.162;24.756;2023-12-20T09:52:58;99556.03;;;6.56;88.70
6387;BME280;3226;42.162;24.756;2023-12-20T09:55:30;99553.22;;;6.72;88.39
6387;BME280;3226;42.162;24.756;2023-12-20T09:58:00;99450.28;;;6.16;86.84
6387;BME280;3226;42.162;24.756;2023-12-20T10:00:30;99047.97;;;3.76;86.03
6387;BME280;3226;42.162;24.756;2023-12-20T10:03:03;99536.66;;;6.99;84.66
6387;BME280;3226;42.162;24.756;2023-12-20T10:05:34;99299.19;;;5.56;85.07
6387;BME280;3226;42.162;24.756;2023-12-20T10:08:03;99531.03;;;7.29;84.47
6387;BME280;3226;42.162;24.756;2023-12-20T10:10:32;99412.28;;;6.52;84.18
6387;BME280;3226;42.162;24.756;2023-12-20T10:13:12;99482.78;;;6.99;84.41
6387;BME280;3226;42.162;24.756;2023-12-20T10:15:40;99293.16;;;5.81;82.46
6387;BME280;3226;42.162;24.756;2023-12-20T10:18:12;99505.91;;;7.41;81.55
6387;BME280;3226;42.162;24.756;2023-12-20T10:20:53;99052.06;;;4.47;81.02
6387;BME280;3226;42.162;24.756;2023-12-20T10:23:22;99497.31;;;7.28;81.71
6387;BME280;3226;42.162;24.756;2023-12-20T10:26:12;99302.28;;;6.13;79.99
6387;BME280;3226;42.162;24.756;2023-12-20T10:29:18;99449.41;;;7.17;79.32
6387;BME280;3226;42.162;24.756;2023-12-20T10:31:48;99082.31;;;5.11;78.08
6387;BME280;3226;42.162;24.756;2023-12-20T10:34:18;99413.03;;;7.40;75.50
6387;BME280;3226;42.162;24.756;2023-12-20T10:36:46;99415.28;;;7.09;75.68
6387;BME280;3226;42.162;24.756;2023-12-20T10:39:15;99480.47;;;7.45;77.90
6387;BME280;3226;42.162;24.756;2023-12-20T10:41:45;99476.69;;;7.49;76.97
6387;BME280;3226;42.162;24.756;2023-12-20T10:44:15;99466.88;;;7.28;77.54
6387;BME280;3226;42.162;24.756;2023-12-20T10:46:44;99455.72;;;7.02;77.08
6387;BME280;3226;42.162;24.756;2023-12-20T10:49:20;99416.03;;;6.98;77.40
6387;BME280;3226;42.162;24.756;2023-12-20T10:51:53;99439.88;;;7.05;78.60
6387;BME280;3226;42.162;24.756;2023-12-20T10:54:27;98966.56;;;4.19;78.46
6387;BME280;3226;42.162;24.756;2023-12-20T10:56:58;99268.22;;;6.04;78.50
6387;BME280;3226;42.162;24.756;2023-12-20T10:59:29;99341.28;;;6.87;78.47
6387;BME280;3226;42.162;24.756;2023-12-20T11:02:03;99230.78;;;6.31;78.24
6387;BME280;3226;42.162;24.756;2023-12-20T11:04:40;99231.78;;;6.42;77.74
6387;BME280;3226;42.162;24.756;2023-12-20T11:07:20;99284.88;;;6.63;76.64
6387;BME280;3226;42.162;24.756;2023-12-20T11:10:03;99374.63;;;7.66;76.34
6387;BME280;3226;42.162;24.756;2023-12-20T11:12:43;99408.00;;;8.08;73.78
6387;BME280;3226;42.162;24.756;2023-12-20T11:15:15;99404.22;;;8.13;74.39
6387;BME280;3226;42.162;24.756;2023-12-20T11:17:45;99405.44;;;8.31;73.54
6387;BME280;3226;42.162;24.756;2023-12-20T11:20:22;99316.25;;;7.92;74.14
6387;BME280;3226;42.162;24.756;2023-12-20T11:22:54;99395.81;;;8.32;73.20
6387;BME280;3226;42.162;24.756;2023-12-20T11:25:23;99392.75;;;8.61;72.89
6387;BME280;3226;42.162;24.756;2023-12-20T11:28:09;99388.66;;;8.79;72.29
6387;BME280;3226;42.162;24.756;2023-12-20T11:30:42;99339.47;;;8.52;69.83
6387;BME280;3226;42.162;24.756;2023-12-20T11:33:14;99376.38;;;8.59;68.50
6387;BME280;3226;42.162;24.756;2023-12-20T11:35:45;99369.63;;;8.33;68.78
6387;BME280;3226;42.162;24.756;2023-12-20T11:38:14;99351.78;;;7.93;69.90
6387;BME280;3226;42.162;24.756;2023-12-20T11:40:43;99245.78;;;7.23;70.15
6387;BME280;3226;42.162;24.756;2023-12-20T11:43:11;99369.09;;;7.94;70.69
6387;BME280;3226;42.162;24.756;2023-12-20T11:45:49;99357.72;;;7.95;71.65
6387;BME280;3226;42.162;24.756;2023-12-20T11:48:18;99231.47;;;7.18;72.33
6387;BME280;3226;42.162;24.756;2023-12-20T11:50:48;99345.63;;;7.82;73.46
6387;BME280;3226;42.162;24.756;2023-12-20T11:53:16;99345.38;;;7.74;74.46
6387;BME280;3226;42.162;24.756;2023-12-20T11:55:47;99343.03;;;7.82;75.62
6387;BME280;3226;42.162;24.756;2023-12-20T11:58:15;99335.91;;;7.85;76.30
6387;BME280;3226;42.162;24.756;2023-12-20T12:00:44;99328.81;;;7.75;77.32
6387;BME280;3226;42.162;24.756;2023-12-20T12:03:15;99100.72;;;6.56;76.83
6387;BME280;3226;42.162;24.756;2023-12-20T12:05:49;99249.88;;;7.39;76.26
6387;BME280;3226;42.162;24.756;2023-12-20T12:08:19;99316.25;;;7.80;77.10
6387;BME280;3226;42.162;24.756;2023-12-20T12:10:48;99218.59;;;7.39;76.08
6387;BME280;3226;42.162;24.756;2023-12-20T12:13:19;99088.94;;;6.74;75.26
6387;BME280;3226;42.162;24.756;2023-12-20T12:15:48;99200.97;;;7.43;74.22
6387;BME280;3226;42.162;24.756;2023-12-20T12:18:18;99091.81;;;6.47;74.58
6387;BME280;3226;42.162;24.756;2023-12-20T12:20:49;99029.03;;;6.04;75.40
6387;BME280;3226;42.162;24.756;2023-12-20T12:23:22;99267.63;;;7.57;76.03
6387;BME280;3226;42.162;24.756;2023-12-20T12:25:52;99201.31;;;7.38;75.73
6387;BME280;3226;42.162;24.756;2023-12-20T12:28:25;98966.28;;;5.73;76.66
6387;BME280;3226;42.162;24.756;2023-12-20T12:30:58;99178.06;;;7.01;78.69
6387;BME280;3226;42.162;24.756;2023-12-20T12:33:29;99064.59;;;6.28;81.39
6387;BME280;3226;42.162;24.756;2023-12-20T12:36:01;99111.66;;;6.84;81.25
6387;BME280;3226;42.162;24.756;2023-12-20T12:38:34;99119.94;;;6.89;80.27
6387;BME280;3226;42.162;24.756;2023-12-20T12:41:04;99261.41;;;7.82;80.48
6387;BME280;3226;42.162;24.756;2023-12-20T12:43:34;99223.34;;;7.68;81.14
6387;BME280;3226;42.162;24.756;2023-12-20T12:46:04;99270.25;;;7.91;81.61
6387;BME280;3226;42.162;24.756;2023-12-20T12:48:34;99128.34;;;6.92;81.30
6387;BME280;3226;42.162;24.756;2023-12-20T12:51:06;99246.94;;;7.78;81.82
6387;BME280;3226;42.162;24.756;2023-12-20T12:53:41;98854.84;;;5.34;81.41
6387;BME280;3226;42.162;24.756;2023-12-20T12:56:12;98996.72;;;6.20;81.91
6387;BME280;3226;42.162;24.756;2023-12-20T12:58:43;98990.94;;;6.28;80.40
6387;BME280;3226;42.162;24.756;2023-12-20T13:01:13;99014.47;;;6.38;80.48
6387;BME280;3226;42.162;24.756;2023-12-20T13:03:43;99192.78;;;7.59;79.22
6387;BME280;3226;42.162;24.756;2023-12-20T13:06:14;99264.34;;;8.00;79.44
6387;BME280;3226;42.162;24.756;2023-12-20T13:08:42;99246.09;;;7.89;79.32
6387;BME280;3226;42.162;24.756;2023-12-20T13:11:11;99171.94;;;7.36;79.07
6387;BME280;3226;42.162;24.756;2023-12-20T13:13:39;99175.97;;;7.40;78.94
6387;BME280;3226;42.162;24.756;2023-12-20T13:16:07;99221.69;;;7.56;80.07
6387;BME280;3226;42.162;24.756;2023-12-20T13:18:36;99212.69;;;7.37;80.69
6387;BME280;3226;42.162;24.756;2023-12-20T13:21:04;99025.34;;;6.31;81.55
6387;BME280;3226;42.162;24.756;2023-12-20T13:23:35;99252.25;;;7.65;81.42
6387;BME280;3226;42.162;24.756;2023-12-20T13:26:07;98958.63;;;5.72;82.37
6387;BME280;3226;42.162;24.756;2023-12-20T13:28:35;99245.38;;;7.52;83.11
6387;BME280;3226;42.162;24.756;2023-12-20T13:31:03;99220.72;;;7.34;82.75